Time;durP1;ratioP1;P1;durP2;ratioP2;P2;SDS_P1;SDS_P2;PMS_P1;PMS_P2;Temp;Humidity;BMP_temperature;BMP_pressure;BME280_temperature;BME280_humidity;BME280_pressure;Samples;Min_cycle;Max_cycle;Signal;HPM_P1;HPM_P2
2022/05/06 00:00:06;;;;;;;4.40;4.20;;;;;;;9.73;88.52;101942.75;6083017;23;20112;-74
2022/05/06 00:02:33;;;;;;;5.95;5.65;;;;;;;9.74;88.14;101942.72;6093191;23;20501;-74
2022/05/06 00:05:00;;;;;;;4.72;4.53;;;;;;;9.70;88.76;101943.69;6086399;23;20082;-74
2022/05/06 00:07:27;;;;;;;4.55;4.35;;;;;;;9.70;88.24;101932.34;6107028;23;20387;-74
2022/05/06 00:09:54;;;;;;;4.47;4.22;;;;;;;9.66;88.86;101944.69;6087004;23;20021;-75
2022/05/06 00:12:22;;;;;;;4.95;4.75;;;;;;;9.63;88.27;101949.16;6096712;23;20021;-75
2022/05/06 00:14:49;;;;;;;4.30;4.10;;;;;;;9.59;87.42;101951.00;6073976;23;20724;-74
2022/05/06 00:17:20;;;;;;;4.30;4.10;;;;;;;9.60;88.41;101944.84;6113658;23;20039;-74
2022/05/06 00:19:47;;;;;;;5.00;4.80;;;;;;;9.63;88.06;101955.25;6080057;23;20542;-74
2022/05/06 00:22:13;;;;;;;4.82;4.63;;;;;;;9.62;88.98;101956.13;6112468;23;20497;-74
2022/05/06 00:24:41;;;;;;;5.57;5.38;;;;;;;9.68;89.92;101950.75;6077422;23;20600;-72
2022/05/06 00:27:07;;;;;;;4.57;4.38;;;;;;;9.71;90.15;101961.13;6104897;23;20267;-73
2022/05/06 00:29:33;;;;;;;5.57;5.38;;;;;;;8.91;89.63;101814.03;6085699;23;20046;-73
2022/05/06 00:32:02;;;;;;;4.18;3.97;;;;;;;9.69;88.54;101957.69;6087011;23;20424;-72
2022/05/06 00:34:28;;;;;;;5.20;5.00;;;;;;;9.01;88.05;101848.69;6106019;23;20018;-74
2022/05/06 00:36:55;;;;;;;4.63;4.43;;;;;;;9.07;87.99;101873.84;6084687;23;20030;-73
2022/05/06 00:39:22;;;;;;;4.82;4.63;;;;;;;9.22;89.48;101885.66;6110343;23;20470;-73
2022/05/06 00:41:52;;;;;;;4.40;4.20;;;;;;;9.18;89.55;101875.28;6084352;23;20135;-72
2022/05/06 00:44:18;;;;;;;4.60;4.40;;;;;;;9.13;89.36;101882.38;6110216;23;20100;-73
2022/05/06 00:46:45;;;;;;;4.30;4.10;;;;;;;9.64;91.04;101969.22;6075997;23;20323;-74
2022/05/06 00:49:14;;;;;;;4.60;4.40;;;;;;;9.55;91.42;101965.94;6114416;23;20018;-72
2022/05/06 00:51:42;;;;;;;6.95;6.57;;;;;;;8.61;91.67;101820.09;6054808;23;20552;-74
2022/05/06 00:54:10;;;;;;;4.88;4.68;;;;;;;8.97;92.13;101908.09;6110527;23;20911;-73
2022/05/06 00:56:37;;;;;;;5.72;5.43;;;;;;;9.39;92.37;101964.66;6077288;23;20016;-74
2022/05/06 00:59:04;;;;;;;4.18;3.97;;;;;;;9.24;92.82;101955.44;6111666;23;20513;-72
2022/05/06 01:01:30;;;;;;;5.65;5.35;;;;;;;8.76;92.94;101885.97;6058295;23;20052;-73
2022/05/06 01:03:57;;;;;;;4.40;4.20;;;;;;;8.71;92.37;101892.22;6107407;23;20081;-75
2022/05/06 01:06:23;;;;;;;5.22;5.03;;;;;;;7.64;92.28;101759.63;6081769;23;20231;-73
2022/05/06 01:08:50;;;;;;;4.10;3.90;;;;;;;9.04;92.99;101962.94;6107735;23;20120;-74
2022/05/06 01:11:18;;;;;;;4.78;4.40;;;;;;;8.46;92.74;101881.50;6084721;23;20013;-73
2022/05/06 01:13:45;;;;;;;5.57;5.35;;;;;;;8.95;93.54;101967.50;6084435;23;20035;-74
2022/05/06 01:16:12;;;;;;;4.40;4.20;;;;;;;8.47;94.25;101888.47;6109668;23;20014;-72
2022/05/06 01:18:39;;;;;;;5.50;5.30;;;;;;;8.90;94.60;101971.13;6074008;23;20018;-73
2022/05/06 01:21:06;;;;;;;4.68;4.45;;;;;;;8.52;95.35;101905.78;6110248;23;20018;-73
2022/05/06 01:23:34;;;;;;;6.18;5.78;;;;;;;8.83;95.77;101967.81;6076621;23;20018;-73
2022/05/06 01:26:00;;;;;;;3.80;3.70;;;;;;;8.81;96.54;101971.38;6112782;23;20093;-73
2022/05/06 01:28:29;;;;;;;3.97;3.83;;;;;;;8.20;96.02;101872.50;6079220;23;20458;-73
2022/05/06 01:31:00;;;;;;;4.82;4.53;;;;;;;8.65;95.68;101956.03;6081961;23;20036;-72
2022/05/06 01:33:30;;;;;;;4.63;4.43;;;;;;;8.77;95.91;101971.44;6072142;23;20379;-72
2022/05/06 01:36:06;;;;;;;4.30;4.10;;;;;;;8.69;96.67;101978.63;6104595;23;20006;-73
2022/05/06 01:38:37;;;;;;;6.10;5.80;;;;;;;8.52;96.43;101946.75;6076468;23;20026;-72
2022/05/06 01:41:08;;;;;;;4.57;4.38;;;;;;;8.63;97.86;101978.75;6081762;23;20052;-74
2022/05/06 01:43:46;;;;;;;4.10;3.90;;;;;;;8.57;97.93;101976.28;6108373;23;20027;-74
2022/05/06 01:46:14;;;;;;;4.68;4.47;;;;;;;8.45;98.56;101958.25;6079183;23;20024;-74
2022/05/06 01:48:44;;;;;;;6.38;6.07;;;;;;;8.49;99.15;101979.09;6100948;23;20027;-73
2022/05/06 01:51:14;;;;;;;4.30;4.10;;;;;;;8.45;99.19;101982.66;6083767;23;20018;-75
2022/05/06 01:53:44;;;;;;;6.05;5.75;;;;;;;8.41;99.68;102021.97;6085840;23;20017;-74
2022/05/06 01:56:11;;;;;;;4.30;4.10;;;;;;;7.43;100.00;101824.53;6099725;23;20044;-74
2022/05/06 01:58:38;;;;;;;5.78;5.45;;;;;;;8.34;100.00;101977.66;6076152;23;20010;-74
2022/05/06 02:01:05;;;;;;;4.20;4.00;;;;;;;8.06;100.00;101947.75;6108666;23;20034;-73
2022/05/06 02:06:17;;;;;;;3.95;3.80;;;;;;;8.03;100.00;101960.91;6108034;23;20485;-72
2022/05/06 02:08:43;;;;;;;4.95;4.75;;;;;;;7.81;100.00;101939.59;6067293;23;20484;-71
2022/05/06 02:11:11;;;;;;;4.32;4.13;;;;;;;8.10;100.00;101992.13;6086985;23;20024;-73
2022/05/06 02:13:38;;;;;;;5.75;5.45;;;;;;;8.05;100.00;101986.13;6072568;23;20033;-73
2022/05/06 02:16:05;;;;;;;3.92;3.72;;;;;;;7.77;99.89;101955.31;6112201;23;20522;-74
2022/05/06 02:18:31;;;;;;;5.80;5.50;;;;;;;7.93;99.72;101987.22;6076916;23;20166;-74
2022/05/06 02:20:58;;;;;;;3.95;3.80;;;;;;;7.41;99.16;101907.28;6107330;23;20486;-73
2022/05/06 02:23:25;;;;;;;4.07;3.88;;;;;;;7.50;99.08;101925.38;6073989;23;20018;-72
2022/05/06 02:25:52;;;;;;;4.07;3.88;;;;;;;7.71;99.80;101954.59;6104075;23;20345;-72
2022/05/06 02:28:19;;;;;;;4.05;3.85;;;;;;;7.60;100.00;101941.75;6077133;23;20178;-73
2022/05/06 02:33:31;;;;;;;5.18;4.97;;;;;;;7.16;100.00;101884.25;6071224;23;20064;-73
2022/05/06 02:36:02;;;;;;;4.25;4.05;;;;;;;7.77;100.00;101994.50;6112386;23;20017;-74
2022/05/06 02:38:29;;;;;;;4.35;4.15;;;;;;;7.72;100.00;101985.91;6074504;23;20018;-73
2022/05/06 02:40:56;;;;;;;4.05;3.85;;;;;;;7.75;100.00;102003.28;6082234;23;20020;-74
2022/05/06 02:43:22;;;;;;;3.70;3.60;;;;;;;7.59;100.00;101967.00;6111385;23;20271;-74
2022/05/06 02:45:49;;;;;;;4.20;4.00;;;;;;;7.68;100.00;101986.88;6075973;23;20025;-74
2022/05/06 02:48:15;;;;;;;4.40;4.20;;;;;;;7.65;100.00;101979.06;6109824;23;20017;-73
2022/05/06 02:50:42;;;;;;;5.50;5.30;;;;;;;7.05;100.00;101880.97;6075544;23;20022;-73
2022/05/06 02:53:10;;;;;;;4.00;3.80;;;;;;;6.65;100.00;101828.66;6106485;23;20124;-74
2022/05/06 02:55:38;;;;;;;4.75;4.55;;;;;;;7.43;100.00;101978.63;6082150;23;20037;-74
2022/05/06 02:58:04;;;;;;;3.95;3.80;;;;;;;7.45;100.00;101976.84;6105738;23;20032;-74
2022/05/06 03:00:31;;;;;;;5.50;5.30;;;;;;;7.41;100.00;101982.16;6081181;23;20057;-74
2022/05/06 03:02:57;;;;;;;5.05;4.00;;;;;;;7.18;100.00;101945.13;6086758;23;20475;-74
2022/05/06 03:05:24;;;;;;;3.58;3.47;;;;;;;7.39;100.00;101979.56;6079479;23;20258;-72
2022/05/06 03:07:51;;;;;;;3.75;3.65;;;;;;;6.84;100.00;101884.00;6083729;23;20018;-73
2022/05/06 03:10:18;;;;;;;4.57;4.38;;;;;;;7.42;100.00;101973.41;6107039;23;20029;-74
2022/05/06 03:12:44;;;;;;;4.20;4.00;;;;;;;6.94;100.00;101903.81;6079699;23;20022;-72
2022/05/06 03:15:11;;;;;;;4.57;4.38;;;;;;;7.40;100.00;101978.69;6116381;23;20403;-73
2022/05/06 03:17:37;;;;;;;5.70;5.47;;;;;;;6.92;100.00;101897.75;6079157;23;20021;-73
2022/05/06 03:20:07;;;;;;;3.70;3.60;;;;;;;7.36;100.00;101969.19;6091675;23;20048;-73
2022/05/06 03:22:53;;;;;;;5.50;5.28;;;;;;;7.34;100.00;101982.28;6108736;23;20033;-72
2022/05/06 03:25:20;;;;;;;4.10;3.90;;;;;;;6.86;100.00;101901.34;6084574;23;20031;-74
2022/05/06 03:28:03;;;;;;;4.85;4.65;;;;;;;7.10;100.00;101959.22;6109922;23;20423;-73
2022/05/06 03:30:31;;;;;;;5.15;4.95;;;;;;;6.76;100.00;101895.41;6076398;23;20045;-74
2022/05/06 03:32:59;;;;;;;3.72;3.63;;;;;;;7.28;100.00;101981.53;6120468;23;20037;-74
2022/05/06 03:35:27;;;;;;;4.13;3.92;;;;;;;5.88;100.00;101773.41;6078680;23;20042;-73
2022/05/06 03:37:54;;;;;;;4.32;4.13;;;;;;;5.89;100.00;101771.63;6110332;23;20016;-74
2022/05/06 03:40:21;;;;;;;3.95;3.80;;;;;;;7.16;100.00;101977.38;6086509;23;20025;-72
2022/05/06 03:42:47;;;;;;;3.60;3.50;;;;;;;7.12;100.00;101979.19;6108404;23;20218;-74
2022/05/06 03:45:14;;;;;;;3.70;3.60;;;;;;;6.68;100.00;101918.16;6085105;23;20037;-74
2022/05/06 03:47:40;;;;;;;5.75;5.45;;;;;;;5.84;100.00;101763.91;6083498;23;20096;-73
2022/05/06 03:52:55;;;;;;;3.90;3.75;;;;;;;7.08;100.00;101989.72;6112821;23;20485;-73
2022/05/06 03:55:22;;;;;;;3.90;3.70;;;;;;;7.05;100.00;101985.38;6080992;23;20396;-72
2022/05/06 03:57:48;;;;;;;4.90;4.60;;;;;;;6.45;100.00;101908.06;6079374;23;20773;-73
2022/05/06 04:00:16;;;;;;;4.40;4.20;;;;;;;7.06;100.00;101989.72;6086510;23;20025;-74
2022/05/06 04:02:43;;;;;;;5.55;5.35;;;;;;;7.02;100.00;101977.63;6084408;23;20034;-73
2022/05/06 04:05:10;;;;;;;4.55;4.35;;;;;;;6.93;100.00;101962.94;6115417;23;20014;-72
2022/05/06 04:07:36;;;;;;;6.47;6.18;;;;;;;7.11;100.00;101985.28;6082776;23;20258;-74
2022/05/06 04:10:04;;;;;;;3.65;3.55;;;;;;;6.75;100.00;101924.97;6058296;23;20352;-71
2022/05/06 04:12:30;;;;;;;5.53;5.25;;;;;;;7.05;100.00;101953.19;6108428;23;20493;-72
2022/05/06 04:14:57;;;;;;;6.47;4.28;;;;;;;7.36;100.00;101990.94;6082384;23;20030;-73
2022/05/06 04:17:23;;;;;;;3.60;3.50;;;;;;;7.25;100.00;101947.63;6111459;23;20033;-75
2022/05/06 04:25:21;;;;;;;4.45;4.25;;;;;;;8.08;100.00;101972.09;6081468;23;20042;-72
2022/05/06 04:27:48;;;;;;;4.25;4.05;;;;;;;8.05;100.00;101925.97;6108039;23;20915;-73
2022/05/06 04:30:14;;;;;;;4.32;4.13;;;;;;;8.21;99.82;101907.34;6081246;23;20171;-74
2022/05/06 04:32:41;;;;;;;5.72;5.45;;;;;;;8.81;97.94;101979.22;6107350;23;20028;-74
2022/05/06 04:35:08;;;;;;;4.38;4.07;;;;;;;9.28;95.84;101999.00;6084507;23;20024;-74
2022/05/06 04:37:35;;;;;;;5.47;5.18;;;;;;;9.22;93.28;101958.97;6107400;23;20085;-73
2022/05/06 04:40:02;;;;;;;4.63;4.43;;;;;;;9.52;90.76;101949.44;6079690;23;20214;-75
2022/05/06 04:42:28;;;;;;;4.45;4.25;;;;;;;9.65;88.54;101929.84;6113318;23;20013;-73
2022/05/06 04:44:55;;;;;;;4.55;4.35;;;;;;;10.29;85.77;102026.78;6079038;23;20026;-74
2022/05/06 04:47:21;;;;;;;4.38;4.18;;;;;;;10.34;84.26;101959.31;6114862;23;20009;-72
2022/05/06 04:49:47;;;;;;;5.43;5.22;;;;;;;10.68;82.23;101949.50;6077792;23;20025;-73
2022/05/06 04:52:14;;;;;;;5.13;4.82;;;;;;;11.33;79.04;101990.25;6082937;23;20034;-75
2022/05/06 04:54:40;;;;;;;6.50;6.20;;;;;;;11.58;76.76;102021.78;6077154;23;20030;-75
2022/05/06 04:57:06;;;;;;;4.80;4.60;;;;;;;11.60;74.25;102030.47;6102943;23;20010;-73
2022/05/06 04:59:36;;;;;;;6.25;5.95;;;;;;;11.86;75.05;102042.69;6052843;23;20092;-72
2022/05/06 05:02:03;;;;;;;4.82;4.63;;;;;;;11.75;74.07;101990.47;6114311;23;20039;-73
2022/05/06 05:04:30;;;;;;;5.57;5.32;;;;;;;12.37;73.20;102036.44;6076063;23;20030;-74
2022/05/06 05:06:57;;;;;;;4.80;4.50;;;;;;;12.45;72.22;102016.84;6111787;23;20510;-74
2022/05/06 05:09:23;;;;;;;5.20;4.90;;;;;;;12.85;71.65;102045.13;6080354;23;20077;-74
2022/05/06 05:11:51;;;;;;;5.40;5.10;;;;;;;13.06;71.07;102048.66;6055491;23;20368;-74
2022/05/06 05:14:17;;;;;;;5.65;5.35;;;;;;;13.35;70.35;102041.38;6083350;23;20037;-73
2022/05/06 05:16:43;;;;;;;5.88;5.57;;;;;;;13.32;68.46;102049.38;6048075;23;20033;-75
2022/05/06 05:19:10;;;;;;;4.60;4.40;;;;;;;13.68;67.52;102032.91;6085521;23;20026;-74
2022/05/06 05:21:36;;;;;;;6.70;6.30;;;;;;;14.05;65.45;102060.28;6024897;23;20413;-72
2022/05/06 05:24:03;;;;;;;5.22;4.95;;;;;;;14.38;66.04;102043.84;6051058;23;20036;-73
2022/05/06 05:26:29;;;;;;;5.70;5.40;;;;;;;14.59;64.87;102056.06;6057031;23;20022;-75
2022/05/06 05:28:56;;;;;;;5.30;5.07;;;;;;;14.12;63.96;101971.97;6049186;23;20041;-74
2022/05/06 05:31:22;;;;;;;5.57;5.10;;;;;;;14.58;63.44;102006.81;6083523;23;20021;-74
2022/05/06 05:33:49;;;;;;;5.43;5.13;;;;;;;15.29;62.77;102051.75;6046607;23;20033;-74
2022/05/06 05:36:15;;;;;;;5.80;5.50;;;;;;;13.95;62.38;101802.09;6073899;23;20013;-74
2022/05/06 05:38:41;;;;;;;6.65;6.35;;;;;;;14.45;61.48;101870.94;6049167;23;20100;-75
2022/05/06 05:41:08;;;;;;;6.38;6.03;;;;;;;15.22;60.64;102001.91;6055636;23;20379;-74
2022/05/06 05:49:04;;;;;;;5.35;5.05;;;;;;;16.44;60.10;102051.97;6079364;23;20446;-74
2022/05/06 05:51:33;;;;;;;7.78;7.18;;;;;;;16.24;59.88;101998.28;6053737;23;20209;-75
2022/05/06 05:53:59;;;;;;;5.93;5.53;;;;;;;16.64;59.38;102061.47;6077328;23;20028;-74
2022/05/06 05:56:25;;;;;;;6.78;6.28;;;;;;;15.80;58.74;101908.91;6053745;23;20037;-74
2022/05/06 05:58:52;;;;;;;6.97;6.40;;;;;;;16.34;59.94;102062.22;6050281;23;20025;-74
2022/05/06 06:01:19;;;;;;;6.97;6.40;;;;;;;16.42;59.96;102065.31;6079149;23;20029;-74
2022/05/06 06:03:45;;;;;;;7.30;6.70;;;;;;;15.61;60.31;101987.53;6046712;23;20014;-74
2022/05/06 06:06:11;;;;;;;6.68;6.13;;;;;;;15.86;61.98;102055.97;6077930;23;20014;-75
2022/05/06 06:08:38;;;;;;;7.53;7.13;;;;;;;15.42;62.35;102051.16;6020911;23;20372;-75
2022/05/06 06:11:04;;;;;;;6.97;6.55;;;;;;;14.14;63.95;102023.78;6037534;23;20042;-74
2022/05/06 06:13:31;;;;;;;6.72;6.35;;;;;;;12.71;66.19;101810.41;6091551;23;20041;-73
2022/05/06 06:15:58;;;;;;;6.78;6.25;;;;;;;14.16;68.47;102068.59;6084022;23;20034;-74
2022/05/06 06:18:27;;;;;;;6.45;6.05;;;;;;;14.24;68.74;102070.91;6107706;23;20193;-74
2022/05/06 06:20:54;;;;;;;6.30;6.00;;;;;;;13.87;68.28;102020.63;6098064;23;20257;-74
2022/05/06 06:23:21;;;;;;;6.50;5.90;;;;;;;13.68;68.39;101999.47;6078259;23;20020;-74
2022/05/06 06:25:48;;;;;;;5.90;5.60;;;;;;;14.15;68.14;102074.78;6097636;23;20033;-74
2022/05/06 06:28:15;;;;;;;7.05;6.35;;;;;;;13.64;68.96;102026.91;6080299;23;20038;-73
2022/05/06 06:30:41;;;;;;;7.55;7.15;;;;;;;13.94;69.11;102048.44;6102674;23;20454;-72
2022/05/06 06:33:08;;;;;;;7.55;6.95;;;;;;;13.38;67.07;101880.38;6072569;23;20038;-75
2022/05/06 06:35:35;;;;;;;7.40;6.22;;;;;;;14.59;65.34;102071.91;6107435;23;20629;-75
2022/05/06 06:38:02;;;;;;;7.63;7.03;;;;;;;14.24;67.33;102079.66;6049647;23;20061;-75
2022/05/06 06:40:28;;;;;;;6.65;6.30;;;;;;;14.55;67.69;102075.59;6105498;23;20024;-75
2022/05/06 06:43:01;;;;;;;6.63;6.15;;;;;;;14.22;66.35;102026.06;6081511;23;20087;-74
2022/05/06 06:45:28;;;;;;;6.32;5.95;;;;;;;13.56;68.75;102050.97;6099485;23;20262;-73
2022/05/06 06:47:55;;;;;;;5.97;5.68;;;;;;;13.53;68.76;101995.72;6083153;23;20384;-74
2022/05/06 06:50:23;;;;;;;7.57;6.30;;;;;;;14.36;68.84;102081.75;6090992;23;20022;-73
2022/05/06 06:52:50;;;;;;;6.65;6.25;;;;;;;13.98;69.25;102087.91;6047354;23;20178;-75
2022/05/06 06:55:18;;;;;;;6.50;6.10;;;;;;;14.38;69.47;102088.75;6107038;23;20022;-74
2022/05/06 06:57:44;;;;;;;6.35;5.95;;;;;;;14.71;69.05;102066.06;6079839;23;20017;-74
2022/05/06 07:00:11;;;;;;;6.53;6.13;;;;;;;15.08;67.71;102085.44;6083300;23;20013;-73
2022/05/06 07:02:42;;;;;;;7.28;6.68;;;;;;;15.04;68.56;102088.31;6108032;23;20005;-74
2022/05/06 07:05:09;;;;;;;9.52;7.47;;;;;;;14.62;69.23;102029.50;6076458;23;20075;-74
2022/05/06 07:13:33;;;;;;;7.85;7.40;;;;;;;14.65;67.69;102092.75;6073684;23;20080;-75
2022/05/06 07:15:59;;;;;;;6.57;6.13;;;;;;;14.76;68.48;102098.41;6082007;23;20544;-72
2022/05/06 07:18:26;;;;;;;6.78;6.30;;;;;;;15.03;68.15;102105.09;6077862;23;20018;-73
2022/05/06 07:20:54;;;;;;;6.93;6.43;;;;;;;15.28;65.83;102115.34;6107386;23;20017;-74
2022/05/06 07:23:21;;;;;;;6.72;6.22;;;;;;;14.51;66.31;101945.47;6077497;23;20077;-75
2022/05/06 07:25:48;;;;;;;7.35;6.38;;;;;;;15.38;65.93;102066.31;6104092;23;20028;-73
2022/05/06 07:28:14;;;;;;;6.00;5.70;;;;;;;15.51;66.48;102106.22;6058607;23;20014;-75
2022/05/06 07:30:41;;;;;;;6.85;6.40;;;;;;;15.70;65.60;102100.88;6076998;23;20037;-74
2022/05/06 07:33:07;;;;;;;8.07;6.57;;;;;;;15.63;63.67;102068.56;6106227;23;20022;-75
2022/05/06 07:35:38;;;;;;;7.70;7.28;;;;;;;15.59;64.74;102045.00;6075936;23;20105;-75
2022/05/06 07:38:05;;;;;;;7.65;6.95;;;;;;;15.73;64.04;102090.16;6088654;23;20025;-73
2022/05/06 07:40:31;;;;;;;7.13;6.63;;;;;;;16.03;63.42;102108.03;6102776;23;20034;-75
2022/05/06 07:42:57;;;;;;;8.02;7.32;;;;;;;16.17;63.38;102102.00;6105912;23;20033;-74
2022/05/06 07:45:24;;;;;;;7.22;6.75;;;;;;;16.26;63.33;102075.03;6082070;23;20506;-73
2022/05/06 07:47:50;;;;;;;6.55;6.03;;;;;;;16.45;62.73;102096.06;6087846;23;20042;-74
2022/05/06 07:50:32;;;;;;;9.75;8.77;;;;;;;16.50;63.59;102094.03;6073610;23;20093;-73
2022/05/06 07:52:58;;;;;;;7.07;6.47;;;;;;;14.51;65.22;101905.84;6107566;23;20516;-74
2022/05/06 07:55:25;;;;;;;7.25;6.68;;;;;;;16.17;64.74;102084.31;6054480;23;20022;-73
2022/05/06 07:57:51;;;;;;;8.43;7.82;;;;;;;15.93;62.76;102029.06;6084670;23;20197;-75
2022/05/06 08:00:23;;;;;;;8.38;7.78;;;;;;;16.78;62.16;102089.81;6109677;23;20023;-75
2022/05/06 08:05:38;;;;;;;8.55;7.55;;;;;;;17.37;59.84;102085.56;6113889;23;20177;-75
2022/05/06 08:08:05;;;;;;;7.60;6.22;;;;;;;17.54;59.48;102093.41;6079072;23;20035;-74
2022/05/06 08:10:31;;;;;;;7.68;7.22;;;;;;;17.32;58.69;102085.84;6111501;23;20031;-74
2022/05/06 08:12:58;;;;;;;20.90;19.73;;;;;;;16.79;59.24;102057.94;5873369;23;20313;-71
2022/05/06 08:15:24;;;;;;;7.00;5.80;;;;;;;16.86;59.03;102005.47;6110610;23;20018;-74
2022/05/06 08:17:51;;;;;;;8.32;7.32;;;;;;;17.62;58.76;102090.31;6059423;23;20030;-74
2022/05/06 08:20:18;;;;;;;6.75;6.25;;;;;;;17.44;59.67;102086.94;6079709;23;20242;-74
2022/05/06 08:22:44;;;;;;;9.00;8.27;;;;;;;16.94;60.91;102058.91;6108450;23;20185;-72
2022/05/06 08:25:11;;;;;;;7.82;7.30;;;;;;;17.17;60.29;102092.03;6080336;23;20024;-74
2022/05/06 08:27:53;;;;;;;7.15;6.65;;;;;;;17.36;59.31;102091.84;6105726;23;20489;-73
2022/05/06 08:30:19;;;;;;;6.85;6.40;;;;;;;17.14;56.92;102015.31;6083116;23;20018;-74
2022/05/06 08:32:46;;;;;;;8.23;7.65;;;;;;;17.37;56.95;102056.38;6073308;23;20117;-74
2022/05/06 08:35:12;;;;;;;7.50;6.43;;;;;;;17.25;57.67;102041.19;6113576;23;20617;-74
2022/05/06 08:37:43;;;;;;;8.85;8.18;;;;;;;17.86;57.82;102088.00;6075921;23;20025;-74
2022/05/06 08:40:22;;;;;;;8.52;7.75;;;;;;;18.12;57.14;102081.09;6116388;23;20431;-74
2022/05/06 08:42:50;;;;;;;8.20;7.57;;;;;;;18.27;56.25;102079.25;6078491;23;20552;-73
2022/05/06 08:50:52;;;;;;;8.00;7.35;;;;;;;18.66;54.76;102104.28;6105515;23;20027;-74
2022/05/06 08:53:24;;;;;;;7.90;7.10;;;;;;;18.86;53.21;102091.53;6082687;23;20018;-74
2022/05/06 08:55:52;;;;;;;8.10;6.75;;;;;;;18.22;53.45;102038.84;6098493;23;20478;-72
2022/05/06 08:58:20;;;;;;;7.25;6.72;;;;;;;18.23;52.78;102016.63;6078980;23;20048;-74
2022/05/06 09:00:46;;;;;;;9.48;7.55;;;;;;;17.53;54.94;102025.31;6110882;23;20245;-74
2022/05/06 09:03:17;;;;;;;7.13;6.63;;;;;;;18.00;54.87;102086.28;6077686;23;20017;-73
2022/05/06 09:05:52;;;;;;;7.63;6.95;;;;;;;17.81;53.87;102030.75;6099133;23;20084;-74
2022/05/06 09:08:20;;;;;;;8.60;7.75;;;;;;;18.47;52.83;102085.13;6081166;23;20020;-74
2022/05/06 09:11:04;;;;;;;7.15;6.72;;;;;;;18.69;53.28;102074.81;6104657;23;20027;-74
2022/05/06 09:13:31;;;;;;;8.18;7.35;;;;;;;18.03;51.82;102006.41;6080038;23;20026;-75
2022/05/06 09:16:46;;;;;;;6.75;6.22;;;;;;;18.43;49.38;102079.16;6109314;23;20026;-74
2022/05/06 09:19:25;;;;;;;8.13;6.10;;;;;;;18.63;46.42;102069.06;6078355;23;20052;-74
2022/05/06 09:22:11;;;;;;;6.22;5.78;;;;;;;18.92;47.35;102076.03;6051235;23;20018;-72
2022/05/06 09:24:39;;;;;;;7.13;6.72;;;;;;;18.78;48.04;102089.31;6110212;23;20026;-75
2022/05/06 09:27:10;;;;;;;8.10;7.30;;;;;;;18.93;47.48;102013.03;6073044;23;20014;-73
2022/05/06 09:29:41;;;;;;;10.77;9.73;;;;;;;19.37;46.16;102081.06;6099637;23;20514;-70
2022/05/06 09:32:15;;;;;;;8.13;7.43;;;;;;;19.34;47.07;102078.56;6076940;23;20077;-73
2022/05/06 09:34:42;;;;;;;8.55;7.95;;;;;;;19.11;48.34;102083.63;6100469;23;20119;-71
2022/05/06 09:37:09;;;;;;;6.88;6.43;;;;;;;19.61;48.86;102083.00;6075744;23;20461;-72
2022/05/06 09:39:38;;;;;;;8.82;8.18;;;;;;;19.95;46.04;102086.88;6101791;23;20201;-71
2022/05/06 09:42:06;;;;;;;7.53;7.03;;;;;;;19.65;46.28;102076.50;6055258;23;20080;-71
2022/05/06 09:44:33;;;;;;;7.85;7.18;;;;;;;19.22;46.47;102036.81;6105164;23;20353;-71
2022/05/06 09:47:15;;;;;;;7.78;7.07;;;;;;;20.13;46.43;102063.41;6070526;23;20038;-73
2022/05/06 09:49:42;;;;;;;7.90;6.70;;;;;;;20.62;45.19;102065.22;6080194;23;20010;-70
2022/05/06 09:52:14;;;;;;;7.53;7.03;;;;;;;20.57;44.52;102022.03;6077114;23;20274;-72
2022/05/06 09:54:42;;;;;;;8.82;7.22;;;;;;;20.28;43.42;101960.16;6107402;23;20453;-71
2022/05/06 09:57:10;;;;;;;7.28;6.68;;;;;;;20.69;41.99;102053.16;6074704;23;20227;-72
2022/05/06 09:59:38;;;;;;;7.55;6.93;;;;;;;20.44;41.93;102063.88;6084972;23;20026;-73
2022/05/06 10:02:05;;;;;;;6.78;6.32;;;;;;;20.24;42.53;102058.16;6113326;23;20133;-72
2022/05/06 10:04:35;;;;;;;7.40;7.00;;;;;;;20.80;42.84;102067.53;6086349;23;20392;-70
2022/05/06 10:07:04;;;;;;;6.97;6.47;;;;;;;20.98;41.40;102050.13;6113429;23;20037;-72
2022/05/06 10:09:47;;;;;;;7.43;7.03;;;;;;;21.43;41.60;102052.13;6084435;23;20041;-70
2022/05/06 10:12:17;;;;;;;8.07;7.43;;;;;;;21.52;40.32;102036.25;6078492;23;20209;-72
2022/05/06 10:14:45;;;;;;;9.13;8.43;;;;;;;21.02;40.79;101998.22;6091060;23;20025;-72
2022/05/06 10:17:11;;;;;;;6.55;5.97;;;;;;;21.17;40.47;102040.72;6077530;23;20346;-71
2022/05/06 10:19:38;;;;;;;8.23;7.72;;;;;;;20.33;42.09;102054.84;6085404;23;20076;-72
2022/05/06 10:22:05;;;;;;;7.10;6.70;;;;;;;19.77;41.79;101992.28;6075789;23;20094;-71
2022/05/06 10:24:49;;;;;;;7.68;7.13;;;;;;;20.32;41.94;102050.47;6109965;23;20020;-73
2022/05/06 10:33:16;;;;;;;7.70;7.00;;;;;;;21.18;38.97;102037.13;6079953;23;20006;-73
2022/05/06 10:35:47;;;;;;;8.65;7.97;;;;;;;20.96;38.69;101985.34;6103128;23;20021;-72
2022/05/06 10:38:22;;;;;;;6.70;6.30;;;;;;;21.26;39.01;102042.72;6076512;23;20017;-74
2022/05/06 10:40:58;;;;;;;7.75;7.00;;;;;;;21.02;38.05;101978.69;6107707;23;20594;-71
2022/05/06 10:43:40;;;;;;;7.35;6.70;;;;;;;21.59;37.87;102041.13;6076871;23;20505;-71
2022/05/06 10:46:11;;;;;;;7.10;6.43;;;;;;;21.18;37.82;102010.41;6077903;23;20045;-73
2022/05/06 10:48:38;;;;;;;9.07;8.20;;;;;;;21.48;39.01;101960.00;6106692;23;20020;-72
2022/05/06 10:51:22;;;;;;;7.85;7.32;;;;;;;22.42;38.35;102003.31;6075827;23;20026;-73
2022/05/06 10:53:49;;;;;;;7.25;6.63;;;;;;;22.15;38.13;102033.13;6100220;23;20474;-72
2022/05/06 10:56:16;;;;;;;7.28;6.82;;;;;;;21.95;38.53;102037.41;6081954;23;20603;-72
2022/05/06 10:58:55;;;;;;;7.72;6.78;;;;;;;22.11;38.09;102031.69;6102467;23;20029;-73
2022/05/06 11:01:24;;;;;;;6.90;6.43;;;;;;;21.42;39.29;102008.53;6081465;23;20024;-74
2022/05/06 11:03:54;;;;;;;7.53;6.90;;;;;;;20.81;39.51;102030.06;6078689;23;20082;-73
2022/05/06 11:06:21;;;;;;;7.05;6.57;;;;;;;21.49;38.47;102038.34;6072987;23;20711;-72
2022/05/06 11:08:48;;;;;;;7.15;6.78;;;;;;;21.51;37.79;102023.03;6103694;23;20013;-73
2022/05/06 11:11:19;;;;;;;7.05;6.47;;;;;;;20.64;38.44;102001.09;6102134;23;20201;-74
2022/05/06 11:13:47;;;;;;;8.20;7.50;;;;;;;20.10;39.95;101939.19;6077062;23;20197;-75
2022/05/06 11:16:17;;;;;;;8.50;7.95;;;;;;;20.89;39.42;101984.97;6050023;23;20084;-72
2022/05/06 11:18:45;;;;;;;9.68;8.30;;;;;;;21.63;38.32;102013.19;6097436;23;20081;-72
2022/05/06 11:21:22;;;;;;;7.55;7.05;;;;;;;21.40;36.99;102002.44;6080650;23;20249;-71
2022/05/06 11:23:49;;;;;;;7.53;7.00;;;;;;;21.51;37.21;102013.19;6073263;23;20029;-72
2022/05/06 11:26:26;;;;;;;7.10;6.50;;;;;;;21.72;37.80;102015.16;6092936;23;20179;-74
2022/05/06 11:29:03;;;;;;;6.68;6.28;;;;;;;20.65;39.65;101826.78;6078454;23;20025;-72
2022/05/06 11:31:29;;;;;;;7.75;7.22;;;;;;;20.92;38.67;102011.41;6077667;23;20022;-72
2022/05/06 11:34:01;;;;;;;7.28;6.55;;;;;;;20.56;39.89;101924.28;6075124;23;20064;-73
2022/05/06 11:36:27;;;;;;;7.30;6.70;;;;;;;20.95;39.47;101993.47;6109592;23;20522;-72
2022/05/06 11:38:54;;;;;;;7.70;7.20;;;;;;;21.56;39.26;102010.16;6071508;23;20329;-71
2022/05/06 11:41:21;;;;;;;6.78;6.20;;;;;;;21.69;36.69;102007.38;6099718;23;20017;-71
2022/05/06 11:43:47;;;;;;;7.13;6.53;;;;;;;21.68;36.32;101926.38;6074331;23;20621;-71
2022/05/06 11:49:07;;;;;;;6.85;6.28;;;;;;;22.86;34.93;102011.31;6080138;23;20021;-73
2022/05/06 11:51:37;;;;;;;8.65;7.97;;;;;;;21.95;35.19;102010.66;6096613;23;20222;-71
2022/05/06 11:54:05;;;;;;;6.13;5.82;;;;;;;20.98;38.03;101993.25;6075648;23;20033;-71
2022/05/06 11:56:36;;;;;;;8.63;8.03;;;;;;;20.89;38.65;101923.59;6078707;23;20025;-70
2022/05/06 11:59:04;;;;;;;7.47;6.90;;;;;;;20.71;39.32;101938.34;6104625;23;20033;-71
2022/05/06 12:01:32;;;;;;;8.45;7.85;;;;;;;20.41;40.58;101978.78;6104644;18;20036;-72
2022/05/06 12:04:00;;;;;;;7.25;6.65;;;;;;;20.62;41.54;101993.22;6157406;23;20020;-71
2022/05/06 12:06:38;;;;;;;7.97;7.38;;;;;;;20.31;41.21;101984.78;6154201;23;20024;-73
2022/05/06 12:09:14;;;;;;;7.32;6.82;;;;;;;20.12;41.89;101992.41;6165779;23;20483;-72
2022/05/06 12:11:42;;;;;;;8.50;7.90;;;;;;;20.19;42.71;101993.69;6133079;23;20091;-72
2022/05/06 12:14:17;;;;;;;6.55;6.10;;;;;;;20.37;41.58;101987.97;6151889;23;20029;-72